KONA/ONA METAR and TAF weather

Enter ICAO airport designator
Station Type Date Time Source
KONA METAR 2020/08/14 17:15 UTC NOAA

KONA 141715Z AUTO 00000KT 10SM OVC037 27/21 A3003 RMK AO2


Station Type Date Time Source
KONA Decoded METAR 2020/08/14 17:15 UTC NOAA

Winona, Winona Municipal Airport-Max Conrad Field, MN, United States (KONA) 44-05N 091-42W
Aug 14, 2020 - 01:15 PM EDT / 2020.08.14 1715 UTC
Wind: Calm:0
Visibility: 10 mile(s):0
Sky conditions: overcast
Temperature: 80 F (27 C)
Dew Point: 69 F (21 C)
Relative Humidity: 69%
Pressure (altimeter): 30.03 in. Hg (1016 hPa)
ob: KONA 141715Z AUTO 00000KT 10SM OVC037 27/21 A3003 RMK AO2
cycle: 17

Station Type Date Time Source
KONA TAF UTC NOAA

Error!

Example: see airport list